Time;durP1;ratioP1;P1;durP2;ratioP2;P2;SDS_P1;SDS_P2;PMS_P1;PMS_P2;Temp;Humidity;BMP_temperature;BMP_pressure;BME280_temperature;BME280_humidity;BME280_pressure;Samples;Min_cycle;Max_cycle;Signal;HPM_P1;HPM_P2
2022/01/18 00:00:39;;;;;;;3.65;1.40;;;;;;;4.59;75.84;96769.19;5066432;28;20075;-63
2022/01/18 00:03:07;;;;;;;6.70;1.80;;;;;;;4.50;74.50;96754.72;5066024;28;20500;-67
2022/01/18 00:05:34;;;;;;;3.70;1.38;;;;;;;4.80;70.47;96776.53;5065601;28;20083;-66
2022/01/18 00:08:01;;;;;;;3.33;1.30;;;;;;;5.00;66.46;96767.41;5064286;28;20056;-63
2022/01/18 00:10:30;;;;;;;3.50;1.27;;;;;;;5.12;66.04;96784.69;5065958;28;20401;-62
2022/01/18 00:15:56;;;;;;;2.75;1.50;;;;;;;5.10;64.85;96745.84;5065388;28;20056;-63
2022/01/18 00:18:23;;;;;;;4.28;1.80;;;;;;;4.87;65.51;96705.44;5065812;28;20512;-65
2022/01/18 00:23:39;;;;;;;3.70;1.75;;;;;;;4.26;66.12;96642.28;5065714;28;20459;-64
2022/01/18 00:26:08;;;;;;;3.72;1.83;;;;;;;5.09;66.99;96790.09;5065041;28;20059;-65
2022/01/18 00:28:37;;;;;;;4.60;1.85;;;;;;;5.01;67.93;96763.56;5065291;28;20504;-65
2022/01/18 00:36:02;;;;;;;3.40;1.38;;;;;;;4.90;68.65;96823.53;5065813;28;20537;-63
2022/01/18 00:38:48;;;;;;;3.30;1.80;;;;;;;4.77;68.08;96774.47;5065391;28;20048;-63
2022/01/18 00:41:17;;;;;;;4.60;2.10;;;;;;;4.74;69.51;96802.59;5065518;28;20060;-62
2022/01/18 00:43:44;;;;;;;3.03;1.63;;;;;;;4.13;71.80;96713.84;5063767;28;20085;-65
2022/01/18 00:46:13;;;;;;;2.38;1.25;;;;;;;4.52;72.39;96801.81;5063283;28;20052;-68
2022/01/18 00:48:41;;;;;;;2.08;1.23;;;;;;;4.43;72.96;96798.38;5063532;28;20497;-63
2022/01/18 00:51:12;;;;;;;4.22;1.42;;;;;;;4.45;73.34;96803.50;5064087;28;20056;-63
2022/01/18 00:53:42;;;;;;;3.15;1.40;;;;;;;4.35;73.93;96807.47;5064694;28;20523;-64
2022/01/18 00:58:42;;;;;;;6.60;1.20;;;;;;;4.48;69.90;96800.91;5064735;28;20056;-70
2022/01/18 01:01:10;;;;;;;2.28;1.33;;;;;;;4.23;66.44;96782.75;5064524;28;20071;-63
2022/01/18 01:03:37;;;;;;;4.15;1.50;;;;;;;4.68;66.59;96842.34;5063523;28;20532;-66
2022/01/18 01:06:07;;;;;;;3.88;1.40;;;;;;;4.64;65.57;96826.56;5064209;28;20454;-63
2022/01/18 01:08:35;;;;;;;3.20;1.48;;;;;;;4.46;62.01;96770.28;5064483;28;20515;-64
2022/01/18 01:11:07;;;;;;;4.25;1.10;;;;;;;5.07;60.80;96839.03;5064391;28;20096;-66
2022/01/18 01:13:36;;;;;;;3.90;1.35;;;;;;;4.61;60.74;96772.41;5062850;28;20049;-64
2022/01/18 01:35:10;;;;;;;4.20;1.20;;;;;;;4.68;50.76;96767.13;5064139;28;20076;-66
2022/01/18 01:43:27;;;;;;;4.00;1.48;;;;;;;4.85;50.00;96821.03;5063984;28;20057;-66
2022/01/18 01:45:55;;;;;;;2.75;1.30;;;;;;;5.23;51.07;96903.13;5063607;28;20112;-63
2022/01/18 01:48:24;;;;;;;3.78;1.42;;;;;;;5.22;51.20;96923.47;5063284;28;20117;-64
2022/01/18 01:51:01;;;;;;;2.10;1.20;;;;;;;4.97;50.77;96917.13;5062279;28;20117;-63
2022/01/18 01:53:29;;;;;;;1.90;0.93;;;;;;;5.00;45.28;96959.53;5063866;28;20526;-63
2022/01/18 01:55:56;;;;;;;2.58;1.35;;;;;;;4.27;44.37;96859.63;5063441;28;20052;-63
2022/01/18 01:58:25;;;;;;;1.67;0.82;;;;;;;4.85;42.66;96952.75;5063921;28;20075;-64
2022/01/18 02:00:54;;;;;;;2.67;1.30;;;;;;;4.78;40.61;96962.63;5063530;28;20500;-63
2022/01/18 02:03:22;;;;;;;1.63;1.17;;;;;;;4.71;42.31;96984.31;5062273;28;20063;-62
2022/01/18 02:05:50;;;;;;;3.42;1.15;;;;;;;4.19;42.89;96951.75;5063477;28;20048;-64
2022/01/18 02:08:17;;;;;;;2.72;1.27;;;;;;;4.53;42.26;96995.44;5077113;28;20055;-63
2022/01/18 02:10:44;;;;;;;4.18;1.08;;;;;;;3.76;42.20;96871.72;5082141;28;20052;-63
2022/01/18 02:13:12;;;;;;;1.83;1.05;;;;;;;4.44;40.80;97002.88;5083789;28;20771;-64
2022/01/18 02:16:08;;;;;;;2.97;1.15;;;;;;;4.23;42.34;97034.94;5083975;28;20059;-64
2022/01/18 02:23:59;;;;;;;2.28;1.08;;;;;;;4.19;41.05;97011.25;5083787;28;20055;-64
2022/01/18 02:26:26;;;;;;;3.33;1.10;;;;;;;3.71;42.29;96970.53;5082141;28;20052;-64
2022/01/18 02:28:54;;;;;;;1.33;1.00;;;;;;;4.01;42.41;97048.91;5083600;28;20447;-65
2022/01/18 02:31:21;;;;;;;1.33;0.90;;;;;;;3.88;42.30;97025.25;5083711;28;20062;-64
2022/01/18 02:33:47;;;;;;;1.70;0.98;;;;;;;3.08;42.44;96900.19;5083566;28;20048;-65
2022/01/18 02:36:14;;;;;;;4.43;1.10;;;;;;;3.78;43.99;97033.81;5083908;28;20050;-61
2022/01/18 02:38:41;;;;;;;7.50;2.55;;;;;;;3.68;45.14;97028.72;5083256;28;20060;-63
2022/01/18 02:41:08;;;;;;;1.75;0.90;;;;;;;3.12;45.05;96966.00;5082941;28;20105;-64
2022/01/18 02:43:47;;;;;;;2.67;0.70;;;;;;;3.53;46.25;97074.94;5083418;28;20052;-63
2022/01/18 02:46:14;;;;;;;1.13;0.75;;;;;;;3.35;41.75;97041.31;5082847;28;20068;-62
2022/01/18 02:48:41;;;;;;;3.33;1.10;;;;;;;3.00;43.04;97012.38;5085460;28;20380;-63
2022/01/18 02:51:08;;;;;;;1.45;1.00;;;;;;;3.39;43.44;97107.19;5090009;28;20055;-62
2022/01/18 02:54:00;;;;;;;1.92;0.90;;;;;;;3.34;43.17;97108.16;5090110;28;20056;-64
2022/01/18 02:56:36;;;;;;;1.92;0.90;;;;;;;3.19;44.73;97108.66;5090362;28;20092;-64
2022/01/18 03:04:19;;;;;;;0.95;0.80;;;;;;;2.98;42.96;97096.72;5090016;28;20104;-63
2022/01/18 03:06:46;;;;;;;2.47;0.80;;;;;;;3.08;41.09;97130.03;5088779;28;20056;-62
2022/01/18 03:09:13;;;;;;;3.25;0.70;;;;;;;3.06;43.57;97142.44;5069533;28;20048;-63
2022/01/18 03:11:39;;;;;;;0.80;0.70;;;;;;;2.95;43.39;97141.13;5070221;28;20059;-63
2022/01/18 03:14:06;;;;;;;2.05;1.02;;;;;;;2.84;44.76;97156.22;5069249;28;20052;-63
2022/01/18 03:16:33;;;;;;;1.63;0.80;;;;;;;2.79;45.60;97165.38;5069444;28;20080;-64
2022/01/18 03:19:00;;;;;;;3.78;0.80;;;;;;;2.05;46.93;97138.22;5067702;28;20139;-62
2022/01/18 03:21:27;;;;;;;2.60;0.80;;;;;;;2.25;46.53;97104.88;5066285;28;20059;-61
2022/01/18 03:24:10;;;;;;;3.28;0.80;;;;;;;2.76;46.89;97176.16;5069317;28;20531;-64
2022/01/18 03:28:04;;;;;;;1.38;0.60;;;;;;;2.53;47.67;97182.81;5069813;28;20052;-63
2022/01/18 03:29:26;;;;;;;1.02;0.85;;;;;;;2.60;48.07;97210.50;5069596;28;20045;-64
2022/01/18 03:31:53;;;;;;;2.10;0.70;;;;;;;2.27;46.92;97165.50;5069400;28;20420;-64
2022/01/18 03:34:20;;;;;;;5.85;1.52;;;;;;;2.61;48.57;97206.63;5069235;28;20521;-63
2022/01/18 03:36:47;;;;;;;2.00;0.90;;;;;;;2.56;50.26;97226.72;5067593;28;20063;-66
2022/01/18 03:39:14;;;;;;;3.92;1.63;;;;;;;2.50;51.26;97213.50;5069346;28;20056;-64
2022/01/18 03:41:41;;;;;;;3.35;1.08;;;;;;;2.39;51.41;97226.63;5069037;28;20067;-63
2022/01/18 03:44:08;;;;;;;2.35;0.70;;;;;;;2.14;48.94;97201.88;5069135;28;20131;-65
2022/01/18 03:46:37;;;;;;;4.47;1.83;;;;;;;2.41;49.91;97240.00;5069365;28;20049;-64
2022/01/18 03:49:05;;;;;;;3.95;1.20;;;;;;;2.34;50.40;97261.50;5068554;28;20439;-63
2022/01/18 03:51:32;;;;;;;2.05;1.02;;;;;;;2.24;50.13;97257.09;5067972;28;20059;-65
2022/01/18 03:53:59;;;;;;;2.38;0.73;;;;;;;2.13;49.49;97252.19;5068820;28;20519;-66
2022/01/18 03:56:26;;;;;;;2.15;1.08;;;;;;;2.20;49.71;97260.75;5068957;28;20040;-65
2022/01/18 03:58:53;;;;;;;0.98;0.80;;;;;;;2.21;50.28;97263.19;5069211;28;20052;-66
2022/01/18 04:01:20;;;;;;;2.03;0.80;;;;;;;2.15;51.76;97274.56;5065166;28;20045;-63
2022/01/18 04:03:51;;;;;;;4.57;1.00;;;;;;;2.04;49.30;97257.59;5066135;28;20053;-63
2022/01/18 04:06:18;;;;;;;2.13;0.73;;;;;;;2.08;50.17;97280.44;5066031;28;20060;-63
2022/01/18 04:08:45;;;;;;;3.22;0.90;;;;;;;2.08;50.46;97287.84;5082828;28;20052;-66
2022/01/18 04:11:12;;;;;;;1.13;0.80;;;;;;;2.03;49.78;97293.41;5084274;28;20348;-63
2022/01/18 04:13:38;;;;;;;24.42;7.65;;;;;;;2.00;49.95;97277.66;5085839;28;20070;-64
2022/01/18 04:16:05;;;;;;;4.30;2.38;;;;;;;1.95;50.13;97292.22;5084241;28;20048;-64
2022/01/18 04:18:51;;;;;;;2.92;1.48;;;;;;;1.39;48.26;97208.09;5085365;28;20143;-65
2022/01/18 04:29:15;;;;;;;2.35;1.20;;;;;;;1.83;48.62;97305.63;5086098;28;20052;-64
2022/01/18 04:31:42;;;;;;;3.45;1.02;;;;;;;1.85;48.61;97308.84;5085017;28;20092;-65
2022/01/18 04:34:09;;;;;;;6.45;1.10;;;;;;;1.83;47.66;97321.22;5085341;28;20058;-63
2022/01/18 04:36:36;;;;;;;2.30;1.10;;;;;;;1.76;47.73;97315.34;5085534;28;20056;-63
2022/01/18 04:39:03;;;;;;;4.13;1.45;;;;;;;1.10;47.55;97215.03;5085447;28;20099;-64
2022/01/18 04:41:31;;;;;;;4.32;2.03;;;;;;;1.70;48.05;97343.88;5083925;28;20044;-65
2022/01/18 04:49:15;;;;;;;4.53;1.63;;;;;;;1.78;46.50;97378.66;5085674;28;20143;-63
2022/01/18 04:51:44;;;;;;;3.47;1.20;;;;;;;1.80;46.04;97379.97;5083650;28;20535;-63
2022/01/18 04:54:12;;;;;;;2.67;1.02;;;;;;;1.66;46.34;97348.34;5085312;28;20141;-63
2022/01/18 04:59:08;;;;;;;2.35;1.13;;;;;;;1.75;46.07;97401.13;5084976;28;20048;-65
2022/01/18 05:01:37;;;;;;;3.45;0.90;;;;;;;1.79;46.08;97377.56;5083580;28;20074;-64
2022/01/18 05:04:04;;;;;;;1.80;0.90;;;;;;;1.73;46.55;97401.41;5083715;28;20052;-63
2022/01/18 05:06:31;;;;;;;2.28;0.80;;;;;;;1.66;46.54;97384.63;5084695;28;20064;-63
2022/01/18 05:09:00;;;;;;;3.40;0.80;;;;;;;1.60;46.82;97390.53;5079797;28;20060;-63
2022/01/18 05:11:31;;;;;;;1.98;0.80;;;;;;;1.68;46.86;97404.25;5063384;28;20101;-64
2022/01/18 05:24:23;;;;;;;12.10;4.20;;;;;;;1.63;47.95;97426.19;5064779;28;20085;-63
2022/01/18 05:26:51;;;;;;;3.45;1.75;;;;;;;1.61;47.75;97441.25;5063555;28;20063;-62
2022/01/18 05:29:19;;;;;;;2.03;1.45;;;;;;;1.66;46.77;97419.31;5064081;28;20044;-64
2022/01/18 05:31:46;;;;;;;4.20;1.10;;;;;;;1.65;47.04;97434.88;5064497;28;20551;-63
2022/01/18 05:34:15;;;;;;;4.68;2.20;;;;;;;1.73;47.32;97452.47;5062654;28;20114;-62
2022/01/18 05:36:42;;;;;;;5.15;2.33;;;;;;;1.67;47.36;97470.91;5064201;28;20056;-63
2022/01/18 05:39:09;;;;;;;2.85;1.10;;;;;;;1.73;47.01;97468.84;5064103;28;20064;-62
2022/01/18 05:41:39;;;;;;;3.30;1.20;;;;;;;1.77;46.77;97486.28;5062376;28;20141;-64
2022/01/18 05:44:06;;;;;;;4.43;1.98;;;;;;;1.16;46.81;97347.47;5066190;28;20056;-60
2022/01/18 05:46:34;;;;;;;7.20;2.28;;;;;;;1.80;46.84;97472.00;5064358;28;20064;-64
2022/01/18 05:49:02;;;;;;;24.27;5.63;;;;;;;1.77;47.55;97461.69;5062787;28;20570;-63
2022/01/18 05:51:31;;;;;;;2.85;1.17;;;;;;;1.80;46.00;97480.19;5064084;28;20048;-61
2022/01/18 05:53:57;;;;;;;3.20;1.30;;;;;;;1.08;46.26;97343.53;5064277;28;20055;-62
2022/01/18 05:56:29;;;;;;;11.35;3.53;;;;;;;1.70;46.21;97469.47;5064121;28;20760;-62
2022/01/18 05:58:59;;;;;;;8.88;3.20;;;;;;;1.92;45.29;97494.16;5062301;28;20074;-64
2022/01/18 06:01:32;;;;;;;2.70;1.23;;;;;;;1.91;45.41;97498.00;5061925;28;20052;-65
2022/01/18 06:09:14;;;;;;;2.15;1.20;;;;;;;1.92;46.42;97494.16;5080074;28;20062;-65
2022/01/18 06:11:41;;;;;;;1.95;0.90;;;;;;;1.86;47.15;97506.28;5084129;28;20052;-64
2022/01/18 06:14:07;;;;;;;4.82;2.10;;;;;;;1.85;48.10;97499.22;5082083;28;20063;-64
2022/01/18 06:16:35;;;;;;;2.25;1.13;;;;;;;1.17;48.39;97434.44;5083935;28;20052;-64
2022/01/18 06:19:02;;;;;;;1.95;1.20;;;;;;;1.80;48.22;97507.50;5084031;28;20051;-63
2022/01/18 06:21:29;;;;;;;1.27;0.80;;;;;;;1.80;48.90;97507.50;5083673;28;20059;-65
2022/01/18 06:23:56;;;;;;;3.13;1.10;;;;;;;1.88;47.92;97525.94;5083238;28;20056;-66
2022/01/18 06:26:22;;;;;;;5.38;1.80;;;;;;;1.95;48.13;97542.69;5081791;28;20055;-64
2022/01/18 06:28:49;;;;;;;4.38;1.40;;;;;;;1.97;48.14;97546.78;5083676;28;20058;-63
2022/01/18 06:31:17;;;;;;;3.13;1.48;;;;;;;2.07;48.52;97551.22;5081946;28;20080;-63
2022/01/18 06:33:44;;;;;;;5.47;2.42;;;;;;;2.20;48.41;97550.38;5083571;28;20048;-62
2022/01/18 06:36:11;;;;;;;5.43;2.28;;;;;;;-0.57;48.09;97131.34;5083227;28;20079;-63
2022/01/18 06:38:38;;;;;;;6.57;2.30;;;;;;;2.22;48.58;97584.53;5083042;28;20044;-63
2022/01/18 06:41:05;;;;;;;12.65;3.63;;;;;;;2.30;48.73;97581.06;5082884;28;20437;-62
2022/01/18 06:43:32;;;;;;;13.13;3.88;;;;;;;2.36;48.68;97582.59;5083145;28;20052;-64
2022/01/18 06:45:59;;;;;;;12.60;3.28;;;;;;;2.42;48.65;97583.31;5081269;28;20086;-64
2022/01/18 06:48:26;;;;;;;8.95;1.98;;;;;;;2.17;47.93;97526.41;5083106;28;20083;-65
2022/01/18 06:50:53;;;;;;;10.05;1.75;;;;;;;2.40;47.62;97582.78;5083462;28;20048;-65
2022/01/18 06:53:20;;;;;;;12.73;3.40;;;;;;;2.10;48.26;97532.31;5081975;28;20438;-65
2022/01/18 06:55:51;;;;;;;12.77;4.38;;;;;;;2.12;47.65;97515.59;5082982;28;20052;-63
2022/01/18 06:58:18;;;;;;;4.28;1.20;;;;;;;2.00;47.16;97518.84;5081476;28;20056;-63
2022/01/18 07:00:45;;;;;;;10.40;3.03;;;;;;;2.67;48.08;97610.13;5083147;28;20066;-66
2022/01/18 07:03:12;;;;;;;8.57;1.88;;;;;;;2.65;48.00;97634.22;5083484;28;20070;-66
2022/01/18 07:05:39;;;;;;;3.13;1.88;;;;;;;2.64;47.47;97627.13;5083162;28;20138;-64
2022/01/18 07:08:09;;;;;;;11.80;2.70;;;;;;;2.75;47.35;97634.00;5076688;28;20074;-66
2022/01/18 07:10:35;;;;;;;6.13;1.73;;;;;;;2.81;48.23;97649.19;5071063;28;20047;-61
2022/01/18 07:13:02;;;;;;;4.90;1.65;;;;;;;1.88;48.33;97498.63;5061816;28;20063;-65
2022/01/18 07:15:30;;;;;;;5.97;1.77;;;;;;;2.45;48.25;97593.63;5069762;28;20098;-65
2022/01/18 07:17:56;;;;;;;2.40;0.88;;;;;;;2.11;47.16;97554.97;5060966;28;20091;-59
2022/01/18 07:20:23;;;;;;;4.35;1.33;;;;;;;1.38;47.61;97479.34;5075433;28;20056;-68
2022/01/18 07:22:50;;;;;;;2.15;1.00;;;;;;;1.45;46.82;97425.16;5072746;28;20162;-62
2022/01/18 07:25:18;;;;;;;3.42;1.27;;;;;;;3.02;47.21;97688.66;5068330;28;20434;-60
2022/01/18 07:27:45;;;;;;;4.95;1.20;;;;;;;2.64;46.85;97643.53;5067389;28;20048;-64
2022/01/18 07:30:12;;;;;;;1.88;0.90;;;;;;;1.79;47.15;97481.31;5075191;28;20040;-59
2022/01/18 07:32:39;;;;;;;2.15;0.90;;;;;;;1.97;47.27;97507.72;5065311;28;20063;-62
2022/01/18 07:35:07;;;;;;;4.47;1.35;;;;;;;3.10;47.39;97668.78;5076501;28;20052;-62
2022/01/18 07:37:34;;;;;;;3.25;1.35;;;;;;;3.17;46.90;97679.34;5085816;28;20091;-62
2022/01/18 07:40:01;;;;;;;3.83;0.90;;;;;;;3.20;46.73;97668.59;5086493;28;20060;-61
2022/01/18 07:42:28;;;;;;;5.85;1.73;;;;;;;3.07;46.48;97680.34;5085458;28;20134;-62
2022/01/18 07:44:55;;;;;;;8.00;3.17;;;;;;;3.21;47.16;97670.19;5084404;28;20051;-62
2022/01/18 07:47:21;;;;;;;4.28;1.55;;;;;;;3.02;47.70;97672.25;5085592;28;20055;-60
2022/01/18 07:49:49;;;;;;;9.00;2.33;;;;;;;3.13;47.14;97672.88;5079586;28;20048;-60
2022/01/18 07:52:16;;;;;;;4.40;1.30;;;;;;;2.65;47.10;97601.41;5077845;28;20489;-60
2022/01/18 07:54:43;;;;;;;7.95;1.70;;;;;;;2.29;47.57;97571.25;5067785;28;20158;-62
2022/01/18 07:57:13;;;;;;;3.17;1.20;;;;;;;2.68;47.34;97611.72;5076033;28;20514;-60
2022/01/18 07:59:39;;;;;;;3.65;1.20;;;;;;;2.95;47.52;97680.09;5073847;28;20055;-58
2022/01/18 08:02:07;;;;;;;4.70;1.50;;;;;;;3.03;48.45;97684.84;5079771;28;20090;-60
2022/01/18 08:04:34;;;;;;;3.35;1.15;;;;;;;2.79;48.10;97651.44;5073732;28;20495;-61
2022/01/18 08:07:01;;;;;;;3.17;1.63;;;;;;;2.87;48.03;97680.81;5074077;28;20060;-61
2022/01/18 08:09:27;;;;;;;44.20;10.65;;;;;;;2.85;48.54;97703.00;5076061;28;20041;-58
2022/01/18 08:11:54;;;;;;;4.75;2.00;;;;;;;2.52;48.62;97635.84;5079354;28;20137;-62
2022/01/18 08:14:21;;;;;;;5.55;2.45;;;;;;;2.96;48.33;97707.13;5079525;28;20099;-59
2022/01/18 08:17:00;;;;;;;7.82;1.70;;;;;;;2.96;47.85;97688.00;5064963;28;20082;-59
2022/01/18 08:19:33;;;;;;;2.55;1.20;;;;;;;3.17;47.29;97717.66;5075792;28;20083;-60
2022/01/18 08:22:07;;;;;;;3.03;1.20;;;;;;;2.34;47.45;97694.16;5078202;28;20122;-62
2022/01/18 08:24:34;;;;;;;2.67;0.98;;;;;;;2.23;48.10;97577.13;5081096;28;20443;-60
2022/01/18 08:27:01;;;;;;;3.15;2.00;;;;;;;3.20;46.71;97728.81;5072669;28;20052;-58
2022/01/18 08:29:28;;;;;;;7.47;2.72;;;;;;;3.23;47.38;97706.28;5066504;28;20127;-61
2022/01/18 08:32:14;;;;;;;12.07;3.67;;;;;;;3.25;47.77;97725.97;5065344;28;20060;-57
2022/01/18 08:34:41;;;;;;;4.13;1.75;;;;;;;3.48;46.62;97716.69;5065655;28;20522;-58
2022/01/18 08:37:08;;;;;;;11.35;2.13;;;;;;;3.02;46.40;97628.47;5064919;28;20052;-58
2022/01/18 08:39:35;;;;;;;6.50;2.30;;;;;;;3.59;46.82;97715.31;5064918;28;20131;-60
2022/01/18 08:42:02;;;;;;;43.67;12.25;;;;;;;3.32;46.40;97671.59;5066876;28;20489;-62
2022/01/18 08:44:30;;;;;;;11.23;3.75;;;;;;;2.95;46.02;97592.53;5074769;28;20045;-60
2022/01/18 08:46:56;;;;;;;28.48;9.68;;;;;;;3.37;45.08;97649.56;5077129;28;20088;-62
2022/01/18 08:49:23;;;;;;;10.60;3.65;;;;;;;3.89;44.17;97720.09;5077480;28;20044;-58
2022/01/18 08:51:50;;;;;;;8.73;2.60;;;;;;;3.58;44.78;97647.97;5074136;28;20446;-61
2022/01/18 08:54:17;;;;;;;7.03;3.17;;;;;;;4.22;44.57;97705.00;5077297;28;20049;-60
2022/01/18 08:56:44;;;;;;;9.50;3.55;;;;;;;3.81;43.91;97613.19;5065750;28;20143;-61
2022/01/18 08:59:26;;;;;;;5.80;1.80;;;;;;;4.27;42.81;97688.41;5064729;28;20450;-61
2022/01/18 09:01:53;;;;;;;6.03;2.28;;;;;;;4.42;42.43;97712.72;5062864;28;20057;-59
2022/01/18 09:04:20;;;;;;;4.15;1.90;;;;;;;4.49;42.68;97715.81;5063867;28;20567;-61
2022/01/18 09:06:50;;;;;;;9.38;2.42;;;;;;;4.04;42.27;97645.72;5082381;28;20064;-60
2022/01/18 09:09:18;;;;;;;5.80;1.80;;;;;;;4.68;42.55;97703.81;5076294;28;20039;-59
2022/01/18 09:11:46;;;;;;;2.45;1.05;;;;;;;1.07;41.24;97140.09;5069890;28;20044;-60
2022/01/18 09:14:14;;;;;;;2.72;1.92;;;;;;;4.52;40.99;97646.59;5069855;28;20425;-67
2022/01/18 09:16:41;;;;;;;3.88;1.60;;;;;;;4.52;40.70;97652.09;5077927;28;20141;-61
2022/01/18 09:19:08;;;;;;;6.88;1.92;;;;;;;4.96;40.68;97677.75;5068160;28;20044;-61
2022/01/18 09:21:35;;;;;;;6.30;1.15;;;;;;;5.05;40.64;97703.28;5077264;28;20078;-64
2022/01/18 09:24:03;;;;;;;6.88;1.30;;;;;;;4.65;40.97;97689.59;5064450;28;20049;-63
2022/01/18 09:26:30;;;;;;;4.13;1.40;;;;;;;4.75;41.56;97679.44;5063789;28;20523;-66
2022/01/18 09:28:57;;;;;;;3.92;2.10;;;;;;;5.02;41.78;97665.50;5063525;28;20055;-65
2022/01/18 09:31:23;;;;;;;2.55;1.20;;;;;;;5.40;41.03;97683.00;5063744;28;20503;-66
2022/01/18 09:33:50;;;;;;;4.68;1.65;;;;;;;5.60;38.29;97677.69;5063928;28;20052;-64
2022/01/18 09:36:17;;;;;;;4.85;1.25;;;;;;;4.97;38.92;97610.72;5078328;28;20052;-67
2022/01/18 09:38:44;;;;;;;4.70;1.90;;;;;;;5.11;39.29;97652.56;5083276;28;20052;-63
2022/01/18 09:41:12;;;;;;;3.80;1.60;;;;;;;5.16;39.35;97616.72;5078906;28;20060;-63
2022/01/18 09:43:41;;;;;;;27.20;8.45;;;;;;;5.35;39.91;97661.19;5069330;28;20055;-62
2022/01/18 09:46:08;;;;;;;27.75;9.65;;;;;;;4.73;39.36;97640.56;5068399;28;20048;-65
2022/01/18 09:48:35;;;;;;;10.93;4.43;;;;;;;4.91;40.13;97691.63;5081860;28;20556;-65
2022/01/18 09:51:03;;;;;;;7.10;1.75;;;;;;;3.83;40.76;97518.56;5081566;28;20044;-62
2022/01/18 09:53:30;;;;;;;6.15;1.88;;;;;;;3.45;41.13;97479.06;5082077;28;20078;-62
2022/01/18 09:55:58;;;;;;;5.30;1.80;;;;;;;4.85;39.13;97671.75;5076743;28;20044;-66
2022/01/18 09:58:24;;;;;;;4.28;2.10;;;;;;;4.86;38.22;97656.06;5062640;28;20071;-65
2022/01/18 10:00:52;;;;;;;6.45;2.50;;;;;;;3.96;39.39;97517.69;5061923;28;20545;-67
2022/01/18 10:03:28;;;;;;;5.53;2.13;;;;;;;4.88;39.21;97665.63;5062847;28;20523;-62
2022/01/18 10:05:56;;;;;;;5.45;3.05;;;;;;;4.72;39.85;97601.31;5062037;28;20127;-62
2022/01/18 10:08:23;;;;;;;7.97;2.75;;;;;;;5.00;38.98;97654.00;5072682;28;20397;-66
2022/01/18 10:10:54;;;;;;;9.55;3.90;;;;;;;4.41;39.17;97519.09;5073499;28;20052;-66
2022/01/18 10:13:24;;;;;;;7.72;2.72;;;;;;;5.24;37.25;97662.63;5061955;28;20052;-63
2022/01/18 10:16:11;;;;;;;6.07;2.50;;;;;;;5.38;39.12;97647.63;5061622;28;20048;-68
2022/01/18 10:19:06;;;;;;;4.75;2.55;;;;;;;5.51;38.27;97651.34;5063317;28;20500;-67
2022/01/18 10:21:45;;;;;;;5.30;2.83;;;;;;;4.35;37.94;97427.16;5067077;28;20209;-65
2022/01/18 10:24:25;;;;;;;5.68;1.90;;;;;;;5.78;37.96;97642.78;5065694;28;20044;-60
2022/01/18 10:26:55;;;;;;;3.85;2.25;;;;;;;5.36;38.63;97577.66;5063368;28;20132;-61
2022/01/18 10:29:46;;;;;;;4.65;2.58;;;;;;;5.25;37.70;97559.91;5061965;28;20107;-61
2022/01/18 10:32:22;;;;;;;3.30;1.70;;;;;;;5.59;36.64;97662.34;5062770;28;20158;-62
2022/01/18 10:37:19;;;;;;;6.78;3.00;;;;;;;5.82;37.10;97641.00;5062802;28;20056;-62
2022/01/18 10:39:54;;;;;;;2.90;1.33;;;;;;;5.67;36.86;97630.50;5062860;28;20053;-66
2022/01/18 10:42:41;;;;;;;2.88;1.05;;;;;;;5.47;36.67;97611.94;5062328;28;20057;-68
2022/01/18 10:45:09;;;;;;;6.88;2.15;;;;;;;5.72;36.56;97636.63;5062975;28;20064;-66
2022/01/18 10:47:38;;;;;;;9.55;2.53;;;;;;;5.77;36.46;97632.91;5062106;28;20072;-64
2022/01/18 10:50:14;;;;;;;6.03;2.50;;;;;;;5.25;36.40;97559.91;5062973;28;20136;-65
2022/01/18 10:52:41;;;;;;;2.78;1.60;;;;;;;5.69;35.82;97630.97;5062800;28;20478;-68
2022/01/18 10:55:15;;;;;;;6.95;3.05;;;;;;;5.01;36.28;97518.38;5062491;28;20515;-62
2022/01/18 10:57:43;;;;;;;5.97;2.10;;;;;;;5.85;36.48;97629.34;5062782;28;20052;-63
2022/01/18 11:00:13;;;;;;;5.85;2.75;;;;;;;5.76;36.24;97631.28;5062743;28;20066;-63
2022/01/18 11:02:42;;;;;;;7.57;2.72;;;;;;;5.53;35.48;97605.91;5064639;28;20059;-67
2022/01/18 11:05:26;;;;;;;9.05;4.32;;;;;;;5.79;35.38;97619.63;5073857;28;20519;-62
2022/01/18 11:07:54;;;;;;;26.88;7.28;;;;;;;5.87;35.96;97616.09;5065032;28;20052;-60
2022/01/18 11:10:23;;;;;;;15.15;4.85;;;;;;;5.61;35.15;97593.31;5068237;28;20056;-60
2022/01/18 11:12:56;;;;;;;8.00;3.40;;;;;;;5.65;35.81;97619.00;5078331;28;20117;-62
2022/01/18 11:15:26;;;;;;;9.95;4.22;;;;;;;5.48;35.77;97630.00;5072211;28;20169;-61
2022/01/18 11:17:59;;;;;;;12.13;4.95;;;;;;;5.54;34.82;97628.72;5079601;28;20050;-62
2022/01/18 11:20:36;;;;;;;11.82;4.15;;;;;;;5.06;36.01;97531.94;5074007;28;20089;-61
2022/01/18 11:23:07;;;;;;;6.78;3.35;;;;;;;4.96;35.01;97535.00;5082299;28;20398;-67
2022/01/18 11:25:37;;;;;;;12.65;3.78;;;;;;;5.00;35.31;97541.47;5074466;28;20074;-66
2022/01/18 11:28:09;;;;;;;5.88;1.58;;;;;;;3.90;35.33;97414.81;5082515;28;20066;-62
2022/01/18 11:30:41;;;;;;;6.57;2.40;;;;;;;4.69;35.30;97492.22;5081501;28;20060;-62
2022/01/18 11:33:14;;;;;;;5.10;2.10;;;;;;;4.84;36.00;97515.63;5082730;28;20063;-64
2022/01/18 11:35:58;;;;;;;4.45;1.83;;;;;;;5.47;36.15;97629.19;5076172;28;20494;-62
2022/01/18 11:38:34;;;;;;;7.60;2.65;;;;;;;5.45;35.43;97630.66;5072057;28;20075;-61
2022/01/18 11:41:07;;;;;;;4.72;2.45;;;;;;;5.50;36.04;97627.75;5070311;28;20715;-66
2022/01/18 11:43:42;;;;;;;9.10;2.92;;;;;;;5.09;35.77;97556.00;5073234;28;20066;-67
2022/01/18 11:46:26;;;;;;;4.57;1.65;;;;;;;4.46;36.29;97461.38;5080207;28;20056;-64
2022/01/18 11:49:09;;;;;;;5.70;1.67;;;;;;;5.37;36.42;97629.53;5076029;28;20071;-63
2022/01/18 11:51:53;;;;;;;4.82;1.67;;;;;;;4.62;36.35;97494.63;5075141;28;20048;-63
2022/01/18 11:54:39;;;;;;;2.40;1.45;;;;;;;5.39;36.46;97604.50;5066817;28;20131;-63
2022/01/18 11:57:21;;;;;;;3.70;1.20;;;;;;;5.27;35.57;97624.34;5073424;28;20051;-61
2022/01/18 12:00:06;;;;;;;3.22;1.35;;;;;;;5.28;36.30;97631.44;5077795;28;20056;-67
2022/01/18 12:02:42;;;;;;;2.47;1.40;;;;;;;4.50;36.57;97499.94;5070993;28;20506;-60
2022/01/18 12:05:20;;;;;;;2.58;1.40;;;;;;;5.30;37.19;97633.88;5077421;28;20553;-63
2022/01/18 12:07:48;;;;;;;6.35;2.63;;;;;;;5.23;37.87;97652.78;5071934;28;20135;-62
2022/01/18 12:10:29;;;;;;;5.40;1.73;;;;;;;5.18;37.32;97641.94;5059946;28;20418;-65
2022/01/18 12:13:17;;;;;;;5.20;2.00;;;;;;;5.26;37.93;97652.13;5066290;28;20430;-62
2022/01/18 12:15:45;;;;;;;2.75;1.60;;;;;;;5.26;37.88;97650.22;5060832;28;20048;-62
2022/01/18 12:18:27;;;;;;;4.57;1.90;;;;;;;5.23;37.71;97658.28;5073938;28;20110;-63
2022/01/18 12:21:03;;;;;;;5.45;1.90;;;;;;;5.24;38.37;97657.13;5072485;28;20624;-62
2022/01/18 12:23:33;;;;;;;3.42;1.60;;;;;;;5.25;38.23;97664.25;5070536;28;20048;-64
2022/01/18 12:26:21;;;;;;;5.28;2.42;;;;;;;5.36;38.19;97684.78;5075682;28;20131;-62
2022/01/18 12:34:42;;;;;;;3.97;1.92;;;;;;;5.49;36.61;97700.31;5066016;28;20048;-63
2022/01/18 12:37:13;;;;;;;2.85;1.73;;;;;;;5.43;36.92;97709.84;5078150;28;20056;-65
2022/01/18 12:39:49;;;;;;;7.85;3.22;;;;;;;5.43;36.97;97720.81;5083910;28;20056;-66
2022/01/18 12:45:01;;;;;;;2.80;2.08;;;;;;;5.45;37.29;97718.56;5074445;28;20052;-61
2022/01/18 12:47:28;;;;;;;2.80;1.17;;;;;;;4.79;37.43;97628.31;5071139;28;20531;-65
2022/01/18 12:49:55;;;;;;;3.22;1.52;;;;;;;5.20;37.66;97695.41;5063484;28;20052;-63
2022/01/18 12:52:22;;;;;;;4.38;1.35;;;;;;;4.79;37.83;97689.47;5069937;28;20052;-67
2022/01/18 12:54:49;;;;;;;5.03;1.85;;;;;;;5.34;38.43;97722.75;5071863;28;20062;-62
2022/01/18 12:57:17;;;;;;;4.38;1.70;;;;;;;5.12;38.23;97681.66;5072952;28;20044;-63
2022/01/18 12:59:59;;;;;;;4.57;1.70;;;;;;;5.45;38.03;97727.63;5079142;28;20056;-63
2022/01/18 13:02:27;;;;;;;2.80;1.63;;;;;;;5.38;38.26;97712.72;5080203;28;20048;-61
2022/01/18 13:04:58;;;;;;;5.00;1.88;;;;;;;5.36;38.46;97726.00;5063754;28;20049;-66
2022/01/18 13:07:25;;;;;;;4.07;1.48;;;;;;;4.98;38.47;97653.53;5063335;28;20048;-66
2022/01/18 13:10:01;;;;;;;3.90;2.00;;;;;;;5.26;38.99;97724.34;5068669;28;20058;-61
2022/01/18 13:12:36;;;;;;;4.30;2.05;;;;;;;4.83;38.42;97700.63;5085072;28;20599;-67
2022/01/18 13:15:06;;;;;;;3.35;1.52;;;;;;;4.81;38.27;97719.34;5085170;28;20052;-66
2022/01/18 13:24:10;;;;;;;3.90;1.42;;;;;;;4.81;39.74;97664.44;5084912;28;20059;-65
2022/01/18 13:26:33;;;;;;;1.17;0.80;;;;;;;4.99;38.50;97721.03;5084671;28;20056;-62
2022/01/18 13:29:14;;;;;;;2.88;1.40;;;;;;;4.89;38.99;97713.06;5084747;28;20051;-63
2022/01/18 13:31:44;;;;;;;2.67;1.00;;;;;;;4.99;39.55;97743.00;5084473;28;20066;-65